sensor_id;sensor_type;location;lat;lon;timestamp;temperature;humidity
16060;DHT22;8134;49.552;7.632;2023-04-06T07:26:37;2.20;99.90
16060;DHT22;8134;49.552;7.632;2023-04-06T07:29:02;2.30;99.90
16060;DHT22;8134;49.552;7.632;2023-04-06T07:31:29;2.40;99.90
16060;DHT22;8134;49.552;7.632;2023-04-06T07:33:55;2.50;99.90
16060;DHT22;8134;49.552;7.632;2023-04-06T07:36:21;2.50;99.90
16060;DHT22;8134;49.552;7.632;2023-04-06T07:38:46;2.60;99.90
16060;DHT22;8134;49.552;7.632;2023-04-06T07:41:12;2.70;99.90
16060;DHT22;8134;49.552;7.632;2023-04-06T07:43:37;2.80;99.90
16060;DHT22;8134;49.552;7.632;2023-04-06T07:46:03;2.90;99.90
16060;DHT22;8134;49.552;7.632;2023-04-06T07:48:29;3.00;99.90
16060;DHT22;8134;49.552;7.632;2023-04-06T07:51:01;3.20;99.90
16060;DHT22;8134;49.552;7.632;2023-04-06T07:53:27;3.30;99.90
16060;DHT22;8134;49.552;7.632;2023-04-06T07:55:53;3.50;99.90
16060;DHT22;8134;49.552;7.632;2023-04-06T07:58:18;3.50;99.90
16060;DHT22;8134;49.552;7.632;2023-04-06T08:00:44;3.70;99.90
16060;DHT22;8134;49.552;7.632;2023-04-06T08:03:09;3.80;99.90
16060;DHT22;8134;49.552;7.632;2023-04-06T08:05:35;3.90;99.90
16060;DHT22;8134;49.552;7.632;2023-04-06T08:08:01;4.10;99.90
16060;DHT22;8134;49.552;7.632;2023-04-06T08:10:26;4.40;99.90
16060;DHT22;8134;49.552;7.632;2023-04-06T08:12:52;4.50;99.90
16060;DHT22;8134;49.552;7.632;2023-04-06T08:15:17;4.70;99.90
16060;DHT22;8134;49.552;7.632;2023-04-06T08:17:43;4.90;99.90
16060;DHT22;8134;49.552;7.632;2023-04-06T08:20:09;5.10;99.90
16060;DHT22;8134;49.552;7.632;2023-04-06T08:22:34;5.20;99.90
16060;DHT22;8134;49.552;7.632;2023-04-06T08:25:00;5.50;99.90
16060;DHT22;8134;49.552;7.632;2023-04-06T08:27:25;5.70;99.90
16060;DHT22;8134;49.552;7.632;2023-04-06T08:29:51;5.90;99.90
16060;DHT22;8134;49.552;7.632;2023-04-06T08:32:16;6.20;99.90
16060;DHT22;8134;49.552;7.632;2023-04-06T08:34:42;6.40;99.90
16060;DHT22;8134;49.552;7.632;2023-04-06T08:37:08;6.60;99.90
16060;DHT22;8134;49.552;7.632;2023-04-06T08:39:33;6.80;99.90
16060;DHT22;8134;49.552;7.632;2023-04-06T08:41:59;6.90;99.90
16060;DHT22;8134;49.552;7.632;2023-04-06T08:44:28;7.10;99.00
16060;DHT22;8134;49.552;7.632;2023-04-06T08:46:54;7.30;99.30
16060;DHT22;8134;49.552;7.632;2023-04-06T08:49:20;7.40;98.30
16060;DHT22;8134;49.552;7.632;2023-04-06T08:51:45;7.50;98.10
16060;DHT22;8134;49.552;7.632;2023-04-06T08:54:12;7.60;97.70
16060;DHT22;8134;49.552;7.632;2023-04-06T08:56:38;7.70;96.90
16060;DHT22;8134;49.552;7.632;2023-04-06T08:59:03;7.80;97.10
16060;DHT22;8134;49.552;7.632;2023-04-06T09:01:30;7.90;97.30
16060;DHT22;8134;49.552;7.632;2023-04-06T09:03:59;8.00;97.20
16060;DHT22;8134;49.552;7.632;2023-04-06T09:06:30;8.00;96.30
16060;DHT22;8134;49.552;7.632;2023-04-06T09:08:56;8.10;96.20
16060;DHT22;8134;49.552;7.632;2023-04-06T09:11:22;8.20;96.30
16060;DHT22;8134;49.552;7.632;2023-04-06T09:13:51;8.30;96.40
16060;DHT22;8134;49.552;7.632;2023-04-06T09:16:18;8.30;96.00
16060;DHT22;8134;49.552;7.632;2023-04-06T09:18:44;8.40;96.00
16060;DHT22;8134;49.552;7.632;2023-04-06T09:21:10;8.50;96.00
16060;DHT22;8134;49.552;7.632;2023-04-06T09:23:35;8.50;95.40
16060;DHT22;8134;49.552;7.632;2023-04-06T09:26:11;8.60;95.50
16060;DHT22;8134;49.552;7.632;2023-04-06T09:28:47;8.70;95.10
16060;DHT22;8134;49.552;7.632;2023-04-06T09:31:16;8.80;94.90
16060;DHT22;8134;49.552;7.632;2023-04-06T09:33:44;8.90;95.20
16060;DHT22;8134;49.552;7.632;2023-04-06T09:36:10;9.00;94.90
16060;DHT22;8134;49.552;7.632;2023-04-06T09:41:29;9.10;94.80
16060;DHT22;8134;49.552;7.632;2023-04-06T09:46:31;9.30;93.70
16060;DHT22;8134;49.552;7.632;2023-04-06T09:48:57;9.40;93.40
16060;DHT22;8134;49.552;7.632;2023-04-06T09:51:23;9.40;93.80
16060;DHT22;8134;49.552;7.632;2023-04-06T09:53:52;9.50;92.90
16060;DHT22;8134;49.552;7.632;2023-04-06T09:56:20;9.70;92.40
16060;DHT22;8134;49.552;7.632;2023-04-06T09:58:49;9.70;92.40
16060;DHT22;8134;49.552;7.632;2023-04-06T10:01:17;9.90;93.10
16060;DHT22;8134;49.552;7.632;2023-04-06T10:06:11;10.00;92.20
16060;DHT22;8134;49.552;7.632;2023-04-06T10:08:38;10.10;92.10
16060;DHT22;8134;49.552;7.632;2023-04-06T10:11:11;10.20;92.10
16060;DHT22;8134;49.552;7.632;2023-04-06T10:13:36;10.20;91.20
16060;DHT22;8134;49.552;7.632;2023-04-06T10:16:02;10.30;91.10
16060;DHT22;8134;49.552;7.632;2023-04-06T10:18:28;10.40;90.50
16060;DHT22;8134;49.552;7.632;2023-04-06T10:21:01;10.50;91.60
16060;DHT22;8134;49.552;7.632;2023-04-06T10:23:33;10.60;91.20
16060;DHT22;8134;49.552;7.632;2023-04-06T10:26:00;10.50;91.00
16060;DHT22;8134;49.552;7.632;2023-04-06T10:28:30;10.50;90.80
16060;DHT22;8134;49.552;7.632;2023-04-06T10:30:56;10.60;90.90
16060;DHT22;8134;49.552;7.632;2023-04-06T10:33:22;10.60;87.80
16060;DHT22;8134;49.552;7.632;2023-04-06T10:35:48;10.70;88.10
16060;DHT22;8134;49.552;7.632;2023-04-06T10:38:14;10.80;88.70
16060;DHT22;8134;49.552;7.632;2023-04-06T10:40:40;10.80;87.70
16060;DHT22;8134;49.552;7.632;2023-04-06T10:43:12;10.80;88.40
16060;DHT22;8134;49.552;7.632;2023-04-06T10:45:38;10.80;87.10
16060;DHT22;8134;49.552;7.632;2023-04-06T10:48:13;10.90;88.70
16060;DHT22;8134;49.552;7.632;2023-04-06T10:50:41;10.90;88.90
16060;DHT22;8134;49.552;7.632;2023-04-06T10:53:06;10.90;85.90
16060;DHT22;8134;49.552;7.632;2023-04-06T10:55:32;10.90;85.80
16060;DHT22;8134;49.552;7.632;2023-04-06T10:57:58;11.00;84.30
16060;DHT22;8134;49.552;7.632;2023-04-06T11:00:23;11.00;85.70
16060;DHT22;8134;49.552;7.632;2023-04-06T11:02:49;11.10;85.50
16060;DHT22;8134;49.552;7.632;2023-04-06T11:05:15;11.20;85.70
16060;DHT22;8134;49.552;7.632;2023-04-06T11:07:41;11.30;84.60
16060;DHT22;8134;49.552;7.632;2023-04-06T11:10:07;11.30;86.10
16060;DHT22;8134;49.552;7.632;2023-04-06T11:12:33;11.30;86.70
16060;DHT22;8134;49.552;7.632;2023-04-06T11:15:00;11.40;83.30
16060;DHT22;8134;49.552;7.632;2023-04-06T11:17:33;11.40;84.80
16060;DHT22;8134;49.552;7.632;2023-04-06T11:19:59;11.50;84.10
16060;DHT22;8134;49.552;7.632;2023-04-06T11:22:26;11.50;85.50
16060;DHT22;8134;49.552;7.632;2023-04-06T11:24:51;11.60;82.30
16060;DHT22;8134;49.552;7.632;2023-04-06T11:27:17;11.60;83.50
16060;DHT22;8134;49.552;7.632;2023-04-06T11:29:44;11.60;83.00
16060;DHT22;8134;49.552;7.632;2023-04-06T11:32:22;11.70;83.00
16060;DHT22;8134;49.552;7.632;2023-04-06T11:34:49;11.60;82.60
16060;DHT22;8134;49.552;7.632;2023-04-06T11:37:16;11.70;81.80
16060;DHT22;8134;49.552;7.632;2023-04-06T11:39:49;11.70;81.60
16060;DHT22;8134;49.552;7.632;2023-04-06T11:42:28;11.70;79.90
16060;DHT22;8134;49.552;7.632;2023-04-06T11:44:55;11.80;82.40
16060;DHT22;8134;49.552;7.632;2023-04-06T11:47:31;11.90;82.60
16060;DHT22;8134;49.552;7.632;2023-04-06T11:50:05;11.90;82.20
16060;DHT22;8134;49.552;7.632;2023-04-06T11:52:30;12.00;82.80
16060;DHT22;8134;49.552;7.632;2023-04-06T11:54:56;12.10;82.30
16060;DHT22;8134;49.552;7.632;2023-04-06T11:57:22;12.10;82.40
16060;DHT22;8134;49.552;7.632;2023-04-06T11:59:51;12.20;81.60
16060;DHT22;8134;49.552;7.632;2023-04-06T12:02:18;12.20;81.70
16060;DHT22;8134;49.552;7.632;2023-04-06T12:04:45;12.20;81.60
16060;DHT22;8134;49.552;7.632;2023-04-06T12:07:10;12.10;79.80
16060;DHT22;8134;49.552;7.632;2023-04-06T12:09:36;12.20;79.90
16060;DHT22;8134;49.552;7.632;2023-04-06T12:12:02;12.20;80.70
16060;DHT22;8134;49.552;7.632;2023-04-06T12:14:28;12.30;80.90
16060;DHT22;8134;49.552;7.632;2023-04-06T12:16:56;12.30;79.80
16060;DHT22;8134;49.552;7.632;2023-04-06T12:19:22;12.30;80.90
16060;DHT22;8134;49.552;7.632;2023-04-06T12:21:54;12.30;80.10
16060;DHT22;8134;49.552;7.632;2023-04-06T12:24:20;12.30;80.90
16060;DHT22;8134;49.552;7.632;2023-04-06T12:26:46;12.30;79.20
16060;DHT22;8134;49.552;7.632;2023-04-06T12:29:11;12.30;80.60
16060;DHT22;8134;49.552;7.632;2023-04-06T12:31:39;12.30;78.20
16060;DHT22;8134;49.552;7.632;2023-04-06T12:34:06;12.30;80.70
16060;DHT22;8134;49.552;7.632;2023-04-06T12:36:32;12.30;79.80
16060;DHT22;8134;49.552;7.632;2023-04-06T12:38:59;12.30;80.70
16060;DHT22;8134;49.552;7.632;2023-04-06T12:41:25;12.30;80.20
16060;DHT22;8134;49.552;7.632;2023-04-06T12:43:51;12.30;79.60
16060;DHT22;8134;49.552;7.632;2023-04-06T12:46:17;12.30;79.90
16060;DHT22;8134;49.552;7.632;2023-04-06T12:48:42;12.30;78.90
16060;DHT22;8134;49.552;7.632;2023-04-06T12:51:08;12.30;80.50
16060;DHT22;8134;49.552;7.632;2023-04-06T12:53:34;12.40;81.20
16060;DHT22;8134;49.552;7.632;2023-04-06T12:56:01;12.40;80.50
16060;DHT22;8134;49.552;7.632;2023-04-06T12:58:27;12.40;81.60
16060;DHT22;8134;49.552;7.632;2023-04-06T13:00:54;12.40;80.10
16060;DHT22;8134;49.552;7.632;2023-04-06T13:03:21;12.40;80.40
16060;DHT22;8134;49.552;7.632;2023-04-06T13:05:48;12.50;80.40
16060;DHT22;8134;49.552;7.632;2023-04-06T13:08:14;12.50;80.10
16060;DHT22;8134;49.552;7.632;2023-04-06T13:10:47;12.50;80.90
16060;DHT22;8134;49.552;7.632;2023-04-06T13:13:13;12.50;80.20
16060;DHT22;8134;49.552;7.632;2023-04-06T13:15:40;12.50;81.00
16060;DHT22;8134;49.552;7.632;2023-04-06T13:18:07;12.50;79.50
16060;DHT22;8134;49.552;7.632;2023-04-06T13:20:32;12.50;79.50
16060;DHT22;8134;49.552;7.632;2023-04-06T13:22:58;12.50;79.40
16060;DHT22;8134;49.552;7.632;2023-04-06T13:25:23;12.50;81.00
16060;DHT22;8134;49.552;7.632;2023-04-06T13:27:49;12.50;80.90
16060;DHT22;8134;49.552;7.632;2023-04-06T13:30:15;12.50;80.90
16060;DHT22;8134;49.552;7.632;2023-04-06T13:32:41;12.50;81.10
16060;DHT22;8134;49.552;7.632;2023-04-06T13:35:07;12.50;80.80
16060;DHT22;8134;49.552;7.632;2023-04-06T13:37:33;12.50;80.40
16060;DHT22;8134;49.552;7.632;2023-04-06T13:39:58;12.50;79.40
16060;DHT22;8134;49.552;7.632;2023-04-06T13:42:24;12.60;80.00
16060;DHT22;8134;49.552;7.632;2023-04-06T13:44:50;12.60;80.30
16060;DHT22;8134;49.552;7.632;2023-04-06T13:47:16;12.60;80.50
16060;DHT22;8134;49.552;7.632;2023-04-06T13:49:41;12.60;79.60
16060;DHT22;8134;49.552;7.632;2023-04-06T13:52:07;12.60;79.60
16060;DHT22;8134;49.552;7.632;2023-04-06T13:54:33;12.60;78.80
16060;DHT22;8134;49.552;7.632;2023-04-06T13:56:58;12.60;79.90
16060;DHT22;8134;49.552;7.632;2023-04-06T13:59:23;12.50;79.90
16060;DHT22;8134;49.552;7.632;2023-04-06T14:01:49;12.70;81.60
16060;DHT22;8134;49.552;7.632;2023-04-06T14:04:15;12.60;81.30
16060;DHT22;8134;49.552;7.632;2023-04-06T14:06:40;12.60;81.30
16060;DHT22;8134;49.552;7.632;2023-04-06T14:09:06;12.60;81.60
16060;DHT22;8134;49.552;7.632;2023-04-06T14:11:31;12.50;81.60
16060;DHT22;8134;49.552;7.632;2023-04-06T14:13:57;12.50;82.00
16060;DHT22;8134;49.552;7.632;2023-04-06T14:16:23;12.50;81.50
16060;DHT22;8134;49.552;7.632;2023-04-06T14:18:48;12.40;81.00
16060;DHT22;8134;49.552;7.632;2023-04-06T14:21:14;12.60;81.50
16060;DHT22;8134;49.552;7.632;2023-04-06T14:23:40;12.50;81.60
16060;DHT22;8134;49.552;7.632;2023-04-06T14:26:06;12.50;82.10
16060;DHT22;8134;49.552;7.632;2023-04-06T14:28:32;12.50;83.50
16060;DHT22;8134;49.552;7.632;2023-04-06T14:31:01;12.50;83.30
16060;DHT22;8134;49.552;7.632;2023-04-06T14:33:28;12.50;83.10
16060;DHT22;8134;49.552;7.632;2023-04-06T14:35:55;12.60;81.60
16060;DHT22;8134;49.552;7.632;2023-04-06T14:38:21;12.60;82.10
16060;DHT22;8134;49.552;7.632;2023-04-06T14:40:47;12.50;82.90
16060;DHT22;8134;49.552;7.632;2023-04-06T14:43:12;12.50;83.10
16060;DHT22;8134;49.552;7.632;2023-04-06T14:45:38;12.50;84.70
16060;DHT22;8134;49.552;7.632;2023-04-06T14:48:04;12.50;84.10
16060;DHT22;8134;49.552;7.632;2023-04-06T14:50:32;12.50;84.40
16060;DHT22;8134;49.552;7.632;2023-04-06T14:52:57;12.50;85.00
16060;DHT22;8134;49.552;7.632;2023-04-06T14:55:23;12.30;85.80
16060;DHT22;8134;49.552;7.632;2023-04-06T14:57:48;12.30;85.60
16060;DHT22;8134;49.552;7.632;2023-04-06T15:00:14;12.30;86.30
16060;DHT22;8134;49.552;7.632;2023-04-06T15:02:40;12.20;87.10
16060;DHT22;8134;49.552;7.632;2023-04-06T15:05:08;12.20;87.20
16060;DHT22;8134;49.552;7.632;2023-04-06T15:07:34;12.10;87.70
16060;DHT22;8134;49.552;7.632;2023-04-06T15:09:59;12.10;88.40
16060;DHT22;8134;49.552;7.632;2023-04-06T15:12:25;12.10;90.00
16060;DHT22;8134;49.552;7.632;2023-04-06T15:14:50;12.00;90.20
16060;DHT22;8134;49.552;7.632;2023-04-06T15:17:16;12.00;90.60
16060;DHT22;8134;49.552;7.632;2023-04-06T15:19:41;12.00;91.20
16060;DHT22;8134;49.552;7.632;2023-04-06T15:22:07;12.00;91.10
16060;DHT22;8134;49.552;7.632;2023-04-06T15:24:33;11.90;90.70
16060;DHT22;8134;49.552;7.632;2023-04-06T15:26:58;11.90;90.80
16060;DHT22;8134;49.552;7.632;2023-04-06T15:29:25;11.90;90.90
16060;DHT22;8134;49.552;7.632;2023-04-06T15:31:50;11.90;91.40
16060;DHT22;8134;49.552;7.632;2023-04-06T15:34:16;11.90;91.20
16060;DHT22;8134;49.552;7.632;2023-04-06T15:36:42;11.90;91.70
16060;DHT22;8134;49.552;7.632;2023-04-06T15:39:08;11.90;91.30
16060;DHT22;8134;49.552;7.632;2023-04-06T15:41:34;11.90;90.80
16060;DHT22;8134;49.552;7.632;2023-04-06T15:44:00;11.80;91.10
16060;DHT22;8134;49.552;7.632;2023-04-06T15:46:26;11.80;91.50
16060;DHT22;8134;49.552;7.632;2023-04-06T15:48:52;11.80;91.30
16060;DHT22;8134;49.552;7.632;2023-04-06T15:51:17;11.80;91.80
16060;DHT22;8134;49.552;7.632;2023-04-06T15:53:43;11.70;92.10
16060;DHT22;8134;49.552;7.632;2023-04-06T15:56:09;11.60;92.40
16060;DHT22;8134;49.552;7.632;2023-04-06T15:58:35;11.60;92.90
16060;DHT22;8134;49.552;7.632;2023-04-06T16:01:00;11.40;94.10
16060;DHT22;8134;49.552;7.632;2023-04-06T16:03:26;11.50;94.00
16060;DHT22;8134;49.552;7.632;2023-04-06T16:05:52;11.50;94.60
16060;DHT22;8134;49.552;7.632;2023-04-06T16:08:18;11.60;95.60
16060;DHT22;8134;49.552;7.632;2023-04-06T16:10:44;11.60;95.60
16060;DHT22;8134;49.552;7.632;2023-04-06T16:13:09;11.60;95.10
16060;DHT22;8134;49.552;7.632;2023-04-06T16:15:35;11.50;96.20
16060;DHT22;8134;49.552;7.632;2023-04-06T16:18:00;11.40;96.80
16060;DHT22;8134;49.552;7.632;2023-04-06T16:20:28;11.50;97.20
16060;DHT22;8134;49.552;7.632;2023-04-06T16:22:54;11.40;97.30
16060;DHT22;8134;49.552;7.632;2023-04-06T16:25:20;11.40;97.30
16060;DHT22;8134;49.552;7.632;2023-04-06T16:27:46;11.30;97.20
16060;DHT22;8134;49.552;7.632;2023-04-06T16:30:12;11.30;98.00
16060;DHT22;8134;49.552;7.632;2023-04-06T16:32:38;11.20;97.90
16060;DHT22;8134;49.552;7.632;2023-04-06T16:35:05;11.20;98.30
16060;DHT22;8134;49.552;7.632;2023-04-06T16:37:31;11.10;98.40
16060;DHT22;8134;49.552;7.632;2023-04-06T16:39:57;11.00;98.80
16060;DHT22;8134;49.552;7.632;2023-04-06T16:42:27;11.00;99.50
16060;DHT22;8134;49.552;7.632;2023-04-06T16:44:53;10.90;99.70
16060;DHT22;8134;49.552;7.632;2023-04-06T16:47:19;10.90;99.90
16060;DHT22;8134;49.552;7.632;2023-04-06T16:49:46;10.90;99.90
16060;DHT22;8134;49.552;7.632;2023-04-06T16:52:12;10.80;99.90
16060;DHT22;8134;49.552;7.632;2023-04-06T16:54:37;10.80;99.90
16060;DHT22;8134;49.552;7.632;2023-04-06T16:57:04;10.80;99.90
16060;DHT22;8134;49.552;7.632;2023-04-06T16:59:31;10.80;99.90
16060;DHT22;8134;49.552;7.632;2023-04-06T17:01:57;10.60;99.90
16060;DHT22;8134;49.552;7.632;2023-04-06T17:04:23;10.60;99.90
16060;DHT22;8134;49.552;7.632;2023-04-06T17:06:48;10.60;99.90
16060;DHT22;8134;49.552;7.632;2023-04-06T17:09:14;10.50;99.90
16060;DHT22;8134;49.552;7.632;2023-04-06T17:11:40;10.40;99.90
16060;DHT22;8134;49.552;7.632;2023-04-06T17:14:06;10.40;99.90
16060;DHT22;8134;49.552;7.632;2023-04-06T17:16:33;10.40;99.90
16060;DHT22;8134;49.552;7.632;2023-04-06T17:19:00;10.40;99.90
16060;DHT22;8134;49.552;7.632;2023-04-06T17:21:26;10.30;99.90
16060;DHT22;8134;49.552;7.632;2023-04-06T17:23:53;10.30;99.90
16060;DHT22;8134;49.552;7.632;2023-04-06T17:26:20;10.30;99.90
16060;DHT22;8134;49.552;7.632;2023-04-06T17:28:46;10.10;99.90
16060;DHT22;8134;49.552;7.632;2023-04-06T17:31:13;10.10;99.90
16060;DHT22;8134;49.552;7.632;2023-04-06T17:33:41;10.10;99.90
16060;DHT22;8134;49.552;7.632;2023-04-06T17:36:07;10.10;99.90
16060;DHT22;8134;49.552;7.632;2023-04-06T17:38:37;10.00;99.90
16060;DHT22;8134;49.552;7.632;2023-04-06T17:41:07;10.00;99.90
16060;DHT22;8134;49.552;7.632;2023-04-06T17:43:33;10.00;99.90
16060;DHT22;8134;49.552;7.632;2023-04-06T17:45:59;10.00;99.90
16060;DHT22;8134;49.552;7.632;2023-04-06T17:48:25;10.00;99.90
16060;DHT22;8134;49.552;7.632;2023-04-06T17:50:52;10.00;99.90
16060;DHT22;8134;49.552;7.632;2023-04-06T17:53:18;10.00;99.90
16060;DHT22;8134;49.552;7.632;2023-04-06T17:55:45;10.00;99.90
16060;DHT22;8134;49.552;7.632;2023-04-06T17:58:10;10.00;99.90
16060;DHT22;8134;49.552;7.632;2023-04-06T18:00:37;9.90;99.90
16060;DHT22;8134;49.552;7.632;2023-04-06T18:03:03;9.90;99.90
16060;DHT22;8134;49.552;7.632;2023-04-06T18:05:29;9.90;99.90
16060;DHT22;8134;49.552;7.632;2023-04-06T18:07:55;9.90;99.90
16060;DHT22;8134;49.552;7.632;2023-04-06T18:10:22;9.90;99.90
16060;DHT22;8134;49.552;7.632;2023-04-06T18:12:49;9.90;99.90
16060;DHT22;8134;49.552;7.632;2023-04-06T18:15:15;9.90;99.90
16060;DHT22;8134;49.552;7.632;2023-04-06T18:17:42;9.80;99.90
16060;DHT22;8134;49.552;7.632;2023-04-06T18:20:08;9.80;99.90
16060;DHT22;8134;49.552;7.632;2023-04-06T18:22:34;9.90;99.90
16060;DHT22;8134;49.552;7.632;2023-04-06T18:25:04;9.90;99.90
16060;DHT22;8134;49.552;7.632;2023-04-06T18:27:30;9.90;99.90
16060;DHT22;8134;49.552;7.632;2023-04-06T18:29:57;9.90;99.90
16060;DHT22;8134;49.552;7.632;2023-04-06T18:32:26;9.70;99.90
16060;DHT22;8134;49.552;7.632;2023-04-06T18:34:55;9.70;99.90
16060;DHT22;8134;49.552;7.632;2023-04-06T18:37:22;9.70;99.90
16060;DHT22;8134;49.552;7.632;2023-04-06T18:39:49;9.80;99.90
16060;DHT22;8134;49.552;7.632;2023-04-06T18:42:15;9.80;99.90
16060;DHT22;8134;49.552;7.632;2023-04-06T18:44:44;9.80;99.90
16060;DHT22;8134;49.552;7.632;2023-04-06T18:47:10;9.70;99.90
16060;DHT22;8134;49.552;7.632;2023-04-06T18:49:36;9.70;99.90
16060;DHT22;8134;49.552;7.632;2023-04-06T18:52:05;9.70;99.90
16060;DHT22;8134;49.552;7.632;2023-04-06T18:54:31;9.70;99.90
16060;DHT22;8134;49.552;7.632;2023-04-06T18:56:57;9.70;99.90
16060;DHT22;8134;49.552;7.632;2023-04-06T18:59:23;9.70;99.90
16060;DHT22;8134;49.552;7.632;2023-04-06T19:01:50;9.70;99.90
16060;DHT22;8134;49.552;7.632;2023-04-06T19:04:19;9.70;99.90
16060;DHT22;8134;49.552;7.632;2023-04-06T19:06:45;9.70;99.90
16060;DHT22;8134;49.552;7.632;2023-04-06T19:09:11;9.60;99.90
16060;DHT22;8134;49.552;7.632;2023-04-06T19:11:36;9.60;99.90
16060;DHT22;8134;49.552;7.632;2023-04-06T19:14:03;9.70;99.90
16060;DHT22;8134;49.552;7.632;2023-04-06T19:16:29;9.70;99.90
16060;DHT22;8134;49.552;7.632;2023-04-06T19:18:55;9.70;99.90
16060;DHT22;8134;49.552;7.632;2023-04-06T19:21:22;9.70;99.90
16060;DHT22;8134;49.552;7.632;2023-04-06T19:23:49;9.60;99.90
16060;DHT22;8134;49.552;7.632;2023-04-06T19:26:15;9.50;99.90
16060;DHT22;8134;49.552;7.632;2023-04-06T19:28:41;9.50;99.90
16060;DHT22;8134;49.552;7.632;2023-04-06T19:31:08;9.40;99.90
16060;DHT22;8134;49.552;7.632;2023-04-06T19:33:35;9.30;99.90
16060;DHT22;8134;49.552;7.632;2023-04-06T19:36:01;9.30;99.90
16060;DHT22;8134;49.552;7.632;2023-04-06T19:38:27;9.30;99.90
16060;DHT22;8134;49.552;7.632;2023-04-06T19:40:53;9.30;99.90
16060;DHT22;8134;49.552;7.632;2023-04-06T19:43:19;9.30;99.90
16060;DHT22;8134;49.552;7.632;2023-04-06T19:45:45;9.30;99.90
16060;DHT22;8134;49.552;7.632;2023-04-06T19:48:12;9.30;99.90
16060;DHT22;8134;49.552;7.632;2023-04-06T19:50:38;9.40;99.90
16060;DHT22;8134;49.552;7.632;2023-04-06T19:53:04;9.40;99.90
16060;DHT22;8134;49.552;7.632;2023-04-06T19:55:32;9.50;99.90
16060;DHT22;8134;49.552;7.632;2023-04-06T19:57:58;9.50;99.90
16060;DHT22;8134;49.552;7.632;2023-04-06T20:00:25;9.50;99.90
16060;DHT22;8134;49.552;7.632;2023-04-06T20:02:50;9.40;99.90
16060;DHT22;8134;49.552;7.632;2023-04-06T20:05:16;9.30;99.90
16060;DHT22;8134;49.552;7.632;2023-04-06T20:07:43;9.30;99.90
16060;DHT22;8134;49.552;7.632;2023-04-06T20:10:08;9.30;99.90
16060;DHT22;8134;49.552;7.632;2023-04-06T20:12:34;9.40;99.90
16060;DHT22;8134;49.552;7.632;2023-04-06T20:14:59;9.30;99.90
16060;DHT22;8134;49.552;7.632;2023-04-06T20:17:25;9.50;99.90
16060;DHT22;8134;49.552;7.632;2023-04-06T20:19:50;9.30;99.90
16060;DHT22;8134;49.552;7.632;2023-04-06T20:22:18;9.40;99.90
16060;DHT22;8134;49.552;7.632;2023-04-06T20:24:43;9.40;99.90
16060;DHT22;8134;49.552;7.632;2023-04-06T20:27:09;9.30;99.90
16060;DHT22;8134;49.552;7.632;2023-04-06T20:29:34;9.40;99.90
16060;DHT22;8134;49.552;7.632;2023-04-06T20:32:00;9.40;99.90
16060;DHT22;8134;49.552;7.632;2023-04-06T20:34:26;9.40;99.90
16060;DHT22;8134;49.552;7.632;2023-04-06T20:36:54;9.40;99.90
16060;DHT22;8134;49.552;7.632;2023-04-06T20:39:19;9.50;99.90
16060;DHT22;8134;49.552;7.632;2023-04-06T20:41:45;9.30;99.90
16060;DHT22;8134;49.552;7.632;2023-04-06T20:44:11;9.40;99.90
16060;DHT22;8134;49.552;7.632;2023-04-06T20:46:36;9.30;99.90
16060;DHT22;8134;49.552;7.632;2023-04-06T20:49:02;9.30;99.90
16060;DHT22;8134;49.552;7.632;2023-04-06T20:51:27;9.30;99.90
16060;DHT22;8134;49.552;7.632;2023-04-06T20:53:53;9.20;99.90
16060;DHT22;8134;49.552;7.632;2023-04-06T20:56:19;9.20;99.90
16060;DHT22;8134;49.552;7.632;2023-04-06T20:58:46;9.20;99.90
16060;DHT22;8134;49.552;7.632;2023-04-06T21:01:15;9.00;99.90
16060;DHT22;8134;49.552;7.632;2023-04-06T21:03:41;9.10;99.90
16060;DHT22;8134;49.552;7.632;2023-04-06T21:06:07;9.00;99.90
16060;DHT22;8134;49.552;7.632;2023-04-06T21:08:32;9.00;99.90
16060;DHT22;8134;49.552;7.632;2023-04-06T21:10:58;9.00;99.90
16060;DHT22;8134;49.552;7.632;2023-04-06T21:13:23;9.00;99.90
16060;DHT22;8134;49.552;7.632;2023-04-06T21:15:49;9.20;99.90
16060;DHT22;8134;49.552;7.632;2023-04-06T21:18:15;9.30;99.90
16060;DHT22;8134;49.552;7.632;2023-04-06T21:20:42;9.10;99.90
16060;DHT22;8134;49.552;7.632;2023-04-06T21:23:07;9.10;99.90
16060;DHT22;8134;49.552;7.632;2023-04-06T21:25:35;9.00;99.90
16060;DHT22;8134;49.552;7.632;2023-04-06T21:28:00;9.00;99.90
16060;DHT22;8134;49.552;7.632;2023-04-06T21:30:26;9.10;99.90
16060;DHT22;8134;49.552;7.632;2023-04-06T21:32:51;9.00;99.90
16060;DHT22;8134;49.552;7.632;2023-04-06T21:35:17;9.20;99.90
16060;DHT22;8134;49.552;7.632;2023-04-06T21:37:42;9.30;99.90
16060;DHT22;8134;49.552;7.632;2023-04-06T21:40:08;9.40;99.90
16060;DHT22;8134;49.552;7.632;2023-04-06T21:42:34;9.10;99.90
16060;DHT22;8134;49.552;7.632;2023-04-06T21:44:59;9.10;99.90
16060;DHT22;8134;49.552;7.632;2023-04-06T21:47:25;9.10;99.90
16060;DHT22;8134;49.552;7.632;2023-04-06T21:49:50;9.20;99.90
16060;DHT22;8134;49.552;7.632;2023-04-06T21:52:16;9.10;99.90
16060;DHT22;8134;49.552;7.632;2023-04-06T21:54:41;9.00;99.90
